Terminal Aerodrome Forecast
Issued by NWS Atlanta, GA

Home | Current Version | Previous Version | Text Only | Print | Product List | Glossary On
Versions: 1 2 3 4 5 6 7 8 9 10 11 12 13 14 15 16 17 18 19 20 21
000
FTUS42 KFFC 302321
TAFCSG
TAF
KCSG 302321Z 0100/0124 19010G18KT P6SM VCSH BKN050
     FM010400 17005KT P6SM SCT035
     FM011000 16004KT P6SM BKN015
     FM011400 21006KT P6SM OVC025
     FM011600 22008KT P6SM VCSH BKN035
     FM012000 23009KT 4SM -TSRA BKN030CB=

USA.gov is the U.S. government's official web portal to all federal, state and local government web resources and services.